createdAt,value
2023-05-16T00:00:47.339Z,9.42
2023-05-16T00:01:47.421Z,9.40
2023-05-16T00:02:47.387Z,9.42
2023-05-16T00:03:47.376Z,9.48
2023-05-16T00:04:47.314Z,9.34
2023-05-16T00:05:47.290Z,9.39
2023-05-16T00:06:47.284Z,9.23
2023-05-16T00:07:47.279Z,9.20
2023-05-16T00:08:47.256Z,9.09
2023-05-16T00:09:47.294Z,9.18
2023-05-16T00:10:47.248Z,9.16
2023-05-16T00:11:47.231Z,9.15
2023-05-16T00:12:47.233Z,9.05
2023-05-16T00:13:47.208Z,8.99
2023-05-16T00:14:47.201Z,9.05
2023-05-16T00:15:47.185Z,8.99
2023-05-16T00:16:47.267Z,9.06
2023-05-16T00:17:47.272Z,9.06
2023-05-16T00:18:47.184Z,8.87
2023-05-16T00:19:47.155Z,8.91
2023-05-16T00:20:47.144Z,8.93
2023-05-16T00:21:47.137Z,8.87
2023-05-16T00:22:47.116Z,8.76
2023-05-16T00:23:47.110Z,8.76
2023-05-16T00:24:47.102Z,8.68
2023-05-16T00:25:47.091Z,8.71
2023-05-16T00:26:47.092Z,8.73
2023-05-16T00:27:47.074Z,8.68
2023-05-16T00:28:47.054Z,8.71
2023-05-16T00:29:47.048Z,8.79
2023-05-16T00:30:47.047Z,8.88
2023-05-16T00:31:47.045Z,8.86
2023-05-16T00:32:47.061Z,8.83
2023-05-16T00:33:47.007Z,8.87
2023-05-16T00:34:47.041Z,8.88
2023-05-16T00:35:47.001Z,8.81
2023-05-16T00:36:46.975Z,8.76
2023-05-16T00:37:46.977Z,8.72
2023-05-16T00:38:46.962Z,8.72
2023-05-16T00:39:46.967Z,8.50
2023-05-16T00:40:46.941Z,8.55
2023-05-16T00:41:46.919Z,8.44
2023-05-16T00:42:46.917Z,8.48
2023-05-16T00:43:46.902Z,8.53
2023-05-16T00:44:46.902Z,8.53
2023-05-16T00:45:46.936Z,8.57
2023-05-16T00:46:47.067Z,8.60
2023-05-16T00:47:46.977Z,8.54
2023-05-16T00:48:46.860Z,8.40
2023-05-16T00:49:46.848Z,8.32
2023-05-16T00:50:46.829Z,8.15
2023-05-16T00:51:46.855Z,8.02
2023-05-16T00:52:46.807Z,7.85
2023-05-16T00:53:46.798Z,7.75
2023-05-16T00:54:46.800Z,7.84
2023-05-16T00:55:46.779Z,7.78
2023-05-16T00:56:46.766Z,7.84
2023-05-16T00:57:46.755Z,7.89
2023-05-16T00:58:46.768Z,7.97
2023-05-16T00:59:46.763Z,7.94
2023-05-16T01:00:48.572Z,8.00
2023-05-16T01:01:46.772Z,8.11
2023-05-16T01:02:46.879Z,8.00
2023-05-16T01:03:46.992Z,8.08
2023-05-16T01:04:46.680Z,8.04
2023-05-16T01:05:46.711Z,8.07
2023-05-16T01:06:46.670Z,8.22
2023-05-16T01:07:46.654Z,8.12
2023-05-16T01:08:46.655Z,8.17
2023-05-16T01:09:46.642Z,8.11
2023-05-16T01:10:46.625Z,8.21
2023-05-16T01:11:46.615Z,8.26
2023-05-16T01:12:46.600Z,8.21
2023-05-16T01:13:46.603Z,8.20
2023-05-16T01:14:46.577Z,8.32
2023-05-16T01:15:46.617Z,8.37
2023-05-16T01:16:46.574Z,8.35
2023-05-16T01:17:46.609Z,8.37
2023-05-16T01:18:46.600Z,8.47
2023-05-16T01:19:46.533Z,8.37
2023-05-16T01:20:46.536Z,8.47
2023-05-16T01:21:46.522Z,8.66
2023-05-16T01:22:46.509Z,8.55
2023-05-16T01:23:46.514Z,8.55
2023-05-16T01:24:46.507Z,8.65
2023-05-16T01:25:46.484Z,8.68
2023-05-16T01:26:46.511Z,8.54
2023-05-16T01:27:46.463Z,8.57
2023-05-16T01:28:46.457Z,8.47
2023-05-16T01:29:46.442Z,8.57
2023-05-16T01:30:46.432Z,8.54
2023-05-16T01:31:46.459Z,8.57
2023-05-16T01:32:46.457Z,8.69
2023-05-16T01:33:46.398Z,8.69
2023-05-16T01:34:47.393Z,8.69
2023-05-16T01:35:46.381Z,8.71
2023-05-16T01:36:46.381Z,8.76
2023-05-16T01:37:46.371Z,8.79
2023-05-16T01:38:46.351Z,8.87
2023-05-16T01:39:46.338Z,8.93
2023-05-16T01:40:46.326Z,8.91
2023-05-16T01:41:46.332Z,8.94
2023-05-16T01:42:46.314Z,8.97
2023-05-16T01:43:46.313Z,9.05
2023-05-16T01:44:46.291Z,9.09
2023-05-16T01:45:46.280Z,9.18
2023-05-16T01:46:46.311Z,9.16
2023-05-16T01:47:46.274Z,9.24
2023-05-16T01:48:46.259Z,9.28
2023-05-16T01:49:46.244Z,9.34
2023-05-16T01:50:46.253Z,9.40
2023-05-16T01:51:46.227Z,9.43
2023-05-16T01:52:46.213Z,9.32
2023-05-16T01:53:46.195Z,9.45
2023-05-16T01:54:46.196Z,9.39
2023-05-16T01:55:46.199Z,9.30
2023-05-16T01:56:46.172Z,9.38
2023-05-16T01:57:46.179Z,9.45
2023-05-16T01:58:46.161Z,9.43
2023-05-16T01:59:46.141Z,9.40
2023-05-16T02:00:46.192Z,9.39
2023-05-16T02:01:46.140Z,9.38
2023-05-16T02:02:46.162Z,9.43
2023-05-16T02:03:46.142Z,9.43
2023-05-16T02:04:46.084Z,9.32
2023-05-16T02:05:46.087Z,9.35
2023-05-16T02:06:46.101Z,9.39
2023-05-16T02:07:46.062Z,9.42
2023-05-16T02:08:46.051Z,9.49
2023-05-16T02:09:46.045Z,9.28
2023-05-16T02:10:46.040Z,9.25
2023-05-16T02:11:46.021Z,9.20
2023-05-16T02:12:46.019Z,9.38
2023-05-16T02:13:45.994Z,9.24
2023-05-16T02:14:45.995Z,9.21
2023-05-16T02:15:45.972Z,9.13
2023-05-16T02:16:45.980Z,9.24
2023-05-16T02:17:45.977Z,9.09
2023-05-16T02:18:46.002Z,9.27
2023-05-16T02:19:45.941Z,9.21
2023-05-16T02:20:45.919Z,9.38
2023-05-16T02:21:45.911Z,9.39
2023-05-16T02:22:45.897Z,9.38
2023-05-16T02:23:45.902Z,9.56
2023-05-16T02:24:45.885Z,9.50
2023-05-16T02:25:45.879Z,9.64
2023-05-16T02:26:45.871Z,9.57
2023-05-16T02:27:45.842Z,9.66
2023-05-16T02:28:45.846Z,9.73
2023-05-16T02:29:45.847Z,9.66
2023-05-16T02:30:45.836Z,9.70
2023-05-16T02:31:45.816Z,9.83
2023-05-16T02:32:45.795Z,9.93
2023-05-16T02:33:45.790Z,9.93
2023-05-16T02:34:45.766Z,10.12
2023-05-16T02:35:45.769Z,10.04
2023-05-16T02:36:45.749Z,10.09
2023-05-16T02:37:45.738Z,10.09
2023-05-16T02:38:45.741Z,10.19
2023-05-16T02:39:45.715Z,10.15
2023-05-16T02:40:45.711Z,10.15
2023-05-16T02:41:45.701Z,10.10
2023-05-16T02:42:45.692Z,10.17
2023-05-16T02:43:47.105Z,10.24
2023-05-16T02:44:46.670Z,10.28
2023-05-16T02:45:45.739Z,10.30
2023-05-16T02:46:45.718Z,10.25
2023-05-16T02:47:45.689Z,10.21
2023-05-16T02:48:45.624Z,10.30
2023-05-16T02:49:45.610Z,10.33
2023-05-16T02:50:45.599Z,10.33
2023-05-16T02:51:45.576Z,10.40
2023-05-16T02:52:46.589Z,10.33
2023-05-16T02:53:45.575Z,10.44
2023-05-16T02:54:48.883Z,10.40
2023-05-16T02:55:46.540Z,10.58
2023-05-16T02:56:45.524Z,10.56
2023-05-16T02:57:45.532Z,10.56
2023-05-16T02:58:45.512Z,10.65
2023-05-16T02:59:45.505Z,10.71
2023-05-16T03:00:45.490Z,10.65
2023-05-16T03:01:45.545Z,10.62
2023-05-16T03:02:45.588Z,10.70
2023-05-16T03:03:45.578Z,10.74
2023-05-16T03:04:45.454Z,10.70
2023-05-16T03:05:45.455Z,10.73
2023-05-16T03:06:45.453Z,10.74
2023-05-16T03:07:45.423Z,10.68
2023-05-16T03:08:45.408Z,10.81
2023-05-16T03:09:45.407Z,10.73
2023-05-16T03:10:45.387Z,10.83
2023-05-16T03:11:45.386Z,10.91
2023-05-16T03:12:45.374Z,10.81
2023-05-16T03:13:45.357Z,10.86
2023-05-16T03:14:45.340Z,10.77
2023-05-16T03:15:45.365Z,10.84
2023-05-16T03:16:45.420Z,10.99
2023-05-16T03:17:45.352Z,10.88
2023-05-16T03:18:45.360Z,10.86
2023-05-16T03:19:45.288Z,10.89
2023-05-16T03:20:45.296Z,10.98
2023-05-16T03:21:45.284Z,10.99
2023-05-16T03:22:45.278Z,10.99
2023-05-16T03:23:45.269Z,11.02
2023-05-16T03:24:45.292Z,11.02
2023-05-16T03:25:45.249Z,10.91
2023-05-16T03:26:45.226Z,11.07
2023-05-16T03:27:45.210Z,11.02
2023-05-16T03:28:45.201Z,11.10
2023-05-16T03:29:45.181Z,11.06
2023-05-16T03:30:45.188Z,11.07
2023-05-16T03:31:45.216Z,11.13
2023-05-16T03:32:45.202Z,11.14
2023-05-16T03:33:45.149Z,11.29
2023-05-16T03:34:45.162Z,11.11
2023-05-16T03:35:45.131Z,11.17
2023-05-16T03:36:45.108Z,11.17
2023-05-16T03:37:45.105Z,11.19
2023-05-16T03:38:45.102Z,11.17
2023-05-16T03:39:45.101Z,11.20
2023-05-16T03:40:45.067Z,11.29
2023-05-16T03:41:45.058Z,11.20
2023-05-16T03:42:45.049Z,11.25
2023-05-16T03:43:45.038Z,11.25
2023-05-16T03:44:45.040Z,11.25
2023-05-16T03:45:45.046Z,11.24
2023-05-16T03:46:45.005Z,11.34
2023-05-16T03:47:45.044Z,11.29
2023-05-16T03:48:44.998Z,11.28
2023-05-16T03:49:44.986Z,11.27
2023-05-16T03:50:44.966Z,11.16
2023-05-16T03:51:44.954Z,11.29
2023-05-16T03:52:44.943Z,11.17
2023-05-16T03:53:44.954Z,11.19
2023-05-16T03:54:44.923Z,11.21
2023-05-16T03:55:46.821Z,11.17
2023-05-16T03:56:44.898Z,11.24
2023-05-16T03:57:44.892Z,11.24
2023-05-16T03:58:44.892Z,11.19
2023-05-16T03:59:44.870Z,11.29
2023-05-16T04:00:44.862Z,11.24
2023-05-16T04:01:44.913Z,11.32
2023-05-16T04:02:45.100Z,11.25
2023-05-16T04:03:44.844Z,11.28
2023-05-16T04:04:44.835Z,11.27
2023-05-16T04:05:44.849Z,11.34
2023-05-16T04:06:44.811Z,11.38
2023-05-16T04:07:44.802Z,11.35
2023-05-16T04:08:44.787Z,11.35
2023-05-16T04:09:44.769Z,11.31
2023-05-16T04:10:44.757Z,11.34
2023-05-16T04:11:44.754Z,11.43
2023-05-16T04:12:44.757Z,11.27
2023-05-16T04:13:44.910Z,11.32
2023-05-16T04:14:44.722Z,11.35
2023-05-16T04:15:44.705Z,11.38
2023-05-16T04:16:44.738Z,11.35
2023-05-16T04:17:44.718Z,11.43
2023-05-16T04:18:44.688Z,11.56
2023-05-16T04:19:44.664Z,11.38
2023-05-16T04:20:44.670Z,11.46
2023-05-16T04:21:44.632Z,11.44
2023-05-16T04:22:44.634Z,11.52
2023-05-16T04:23:44.606Z,11.57
2023-05-16T04:24:44.606Z,11.50
2023-05-16T04:25:44.606Z,11.61
2023-05-16T04:26:44.578Z,11.54
2023-05-16T04:27:44.579Z,11.62
2023-05-16T04:28:44.557Z,11.57
2023-05-16T04:29:44.560Z,11.54
2023-05-16T04:30:44.535Z,11.47
2023-05-16T04:31:44.552Z,11.57
2023-05-16T04:32:44.557Z,11.61
2023-05-16T04:33:44.510Z,11.57
2023-05-16T04:34:44.511Z,11.53
2023-05-16T04:35:44.486Z,11.57
2023-05-16T04:36:44.485Z,11.62
2023-05-16T04:37:44.465Z,11.67
2023-05-16T04:38:44.444Z,11.64
2023-05-16T04:39:45.447Z,11.71
2023-05-16T04:40:44.442Z,11.74
2023-05-16T04:41:44.436Z,11.70
2023-05-16T04:42:44.427Z,11.70
2023-05-16T04:43:44.403Z,11.72
2023-05-16T04:44:44.395Z,11.75
2023-05-16T04:45:44.397Z,11.75
2023-05-16T04:46:44.397Z,11.72
2023-05-16T04:47:45.934Z,11.75
2023-05-16T04:48:44.358Z,11.75
2023-05-16T04:49:44.348Z,11.71
2023-05-16T04:50:44.354Z,11.83
2023-05-16T04:51:44.324Z,11.78
2023-05-16T04:52:44.311Z,11.80
2023-05-16T04:53:44.311Z,11.67
2023-05-16T04:54:44.402Z,11.64
2023-05-16T04:55:44.298Z,11.64
2023-05-16T04:56:44.281Z,11.72
2023-05-16T04:57:44.263Z,11.65
2023-05-16T04:58:44.274Z,11.56
2023-05-16T04:59:44.253Z,11.61
2023-05-16T05:00:44.241Z,11.61
2023-05-16T05:01:44.249Z,11.75
2023-05-16T05:02:44.244Z,11.70
2023-05-16T05:03:45.705Z,11.78
2023-05-16T05:04:44.220Z,11.64
2023-05-16T05:05:44.176Z,11.65
2023-05-16T05:06:44.181Z,11.71
2023-05-16T05:07:44.155Z,11.67
2023-05-16T05:08:44.147Z,11.67
2023-05-16T05:09:44.565Z,11.61
2023-05-16T05:10:44.125Z,11.54
2023-05-16T05:11:44.118Z,11.64
2023-05-16T05:12:44.100Z,11.64
2023-05-16T05:13:44.098Z,11.64
2023-05-16T05:14:44.094Z,11.61
2023-05-16T05:15:44.073Z,11.46
2023-05-16T05:16:44.061Z,11.53
2023-05-16T05:17:44.209Z,11.53
2023-05-16T05:18:44.087Z,11.56
2023-05-16T05:19:44.133Z,11.62
2023-05-16T05:20:44.024Z,11.70
2023-05-16T05:21:44.009Z,11.65
2023-05-16T05:22:43.996Z,11.56
2023-05-16T05:23:43.996Z,11.62
2023-05-16T05:24:43.977Z,11.70
2023-05-16T05:25:43.970Z,11.80
2023-05-16T05:26:43.960Z,11.65
2023-05-16T05:27:43.954Z,11.72
2023-05-16T05:28:50.799Z,11.71
2023-05-16T05:29:44.938Z,11.71
2023-05-16T05:30:43.931Z,11.85
2023-05-16T05:31:47.953Z,11.86
2023-05-16T05:32:43.986Z,11.96
2023-05-16T05:33:44.572Z,12.01
2023-05-16T05:34:45.062Z,12.04
2023-05-16T05:35:44.053Z,12.02
2023-05-16T05:36:43.966Z,12.04
2023-05-16T05:37:43.949Z,12.16
2023-05-16T05:38:43.923Z,12.20
2023-05-16T05:39:43.945Z,12.41
2023-05-16T05:40:43.933Z,12.37
2023-05-16T05:41:43.890Z,12.38
2023-05-16T05:42:46.705Z,12.30
2023-05-16T05:43:43.907Z,12.44
2023-05-16T05:44:43.884Z,12.48
2023-05-16T05:45:43.963Z,12.59
2023-05-16T05:46:43.811Z,12.48
2023-05-16T05:47:43.906Z,12.62
2023-05-16T05:48:43.879Z,12.66
2023-05-16T05:49:43.802Z,12.52
2023-05-16T05:50:43.819Z,12.63
2023-05-16T05:51:43.780Z,12.64
2023-05-16T05:52:43.781Z,12.66
2023-05-16T05:53:43.757Z,12.48
2023-05-16T05:54:43.756Z,12.49
2023-05-16T05:55:43.707Z,12.48
2023-05-16T05:56:43.725Z,12.52
2023-05-16T05:57:43.747Z,12.45
2023-05-16T05:58:43.711Z,12.59
2023-05-16T05:59:43.699Z,12.62
2023-05-16T06:00:43.720Z,12.60
2023-05-16T06:01:43.724Z,12.56
2023-05-16T06:02:43.839Z,12.54
2023-05-16T06:03:43.657Z,12.34
2023-05-16T06:04:44.845Z,12.48
2023-05-16T06:05:44.384Z,12.39
2023-05-16T06:06:43.734Z,12.38
2023-05-16T06:07:44.608Z,12.33
2023-05-16T06:08:43.734Z,12.23
2023-05-16T06:09:43.643Z,12.24
2023-05-16T06:10:43.599Z,12.33
2023-05-16T06:11:43.684Z,12.33
2023-05-16T06:12:43.677Z,12.30
2023-05-16T06:13:43.802Z,12.23
2023-05-16T06:14:44.168Z,12.24
2023-05-16T06:15:43.712Z,12.31
2023-05-16T06:16:44.976Z,12.29
2023-05-16T06:17:44.223Z,12.46
2023-05-16T06:18:43.758Z,12.30
2023-05-16T06:19:44.940Z,12.33
2023-05-16T06:20:44.125Z,12.37
2023-05-16T06:21:43.887Z,12.34
2023-05-16T06:22:43.826Z,12.08
2023-05-16T06:23:49.021Z,12.16
2023-05-16T06:24:43.950Z,12.21
2023-05-16T06:26:17.722Z,12.21
2023-05-16T06:26:52.961Z,12.27
2023-05-16T06:27:48.589Z,12.23
2023-05-16T06:28:43.439Z,12.23
2023-05-16T06:29:43.465Z,12.13
2023-05-16T06:30:43.429Z,12.23
2023-05-16T06:31:43.490Z,12.13
2023-05-16T06:33:20.658Z,12.30
2023-05-16T06:34:04.728Z,12.33
2023-05-16T07:24:10.687Z,12.42
2023-05-16T07:25:10.867Z,12.24
2023-05-16T07:26:10.709Z,12.24
2023-05-16T07:27:10.787Z,12.30
2023-05-16T07:28:10.638Z,12.24
2023-05-16T07:30:36.585Z,12.46
2023-05-16T07:33:09.533Z,12.51
2023-05-16T07:34:09.528Z,12.46
2023-05-16T07:35:09.524Z,12.56
2023-05-16T07:36:16.890Z,12.60
2023-05-16T07:38:47.511Z,12.57
2023-05-16T07:39:36.529Z,12.39
2023-05-16T07:40:36.433Z,12.33
2023-05-16T07:41:36.581Z,12.48
2023-05-16T07:44:26.006Z,12.24
2023-05-16T07:45:02.434Z,12.08
2023-05-16T07:46:02.406Z,12.21
2023-05-16T07:47:02.395Z,12.19
2023-05-16T07:48:03.106Z,12.11
2023-05-16T07:49:02.387Z,11.94
2023-05-16T07:50:02.374Z,12.08
2023-05-16T07:51:13.417Z,12.04
2023-05-16T07:52:02.317Z,12.06
2023-05-16T07:53:02.295Z,12.08
2023-05-16T07:54:02.350Z,12.08
2023-05-16T07:55:02.312Z,11.97
2023-05-16T07:56:02.276Z,12.02
2023-05-16T07:57:02.254Z,12.13
2023-05-16T07:58:02.258Z,12.12
2023-05-16T07:59:02.321Z,12.15
2023-05-16T08:00:02.245Z,12.06
2023-05-16T08:01:02.210Z,12.05
2023-05-16T08:02:02.268Z,12.04
2023-05-16T08:03:02.340Z,12.16
2023-05-16T08:04:02.240Z,12.26
2023-05-16T08:05:02.228Z,12.29
2023-05-16T08:06:02.346Z,12.37
2023-05-16T08:07:02.158Z,12.37
2023-05-16T08:08:02.135Z,12.33
2023-05-16T08:09:02.141Z,12.59
2023-05-16T08:10:02.140Z,12.48
2023-05-16T08:11:02.179Z,12.60
2023-05-16T08:12:02.104Z,12.52
2023-05-16T08:13:02.116Z,12.71
2023-05-16T08:14:02.087Z,12.79
2023-05-16T08:15:02.066Z,12.70
2023-05-16T08:16:02.113Z,12.66
2023-05-16T08:17:03.003Z,12.77
2023-05-16T08:18:02.078Z,13.02
2023-05-16T08:19:02.061Z,13.04
2023-05-16T08:20:02.005Z,12.92
2023-05-16T08:21:02.003Z,12.92
2023-05-16T08:22:01.992Z,13.02
2023-05-16T08:23:01.983Z,13.07
2023-05-16T08:24:01.996Z,13.04
2023-05-16T08:25:01.954Z,13.04
2023-05-16T08:26:01.950Z,13.17
2023-05-16T08:27:01.976Z,12.93
2023-05-16T08:28:01.936Z,12.77
2023-05-16T08:29:01.917Z,12.81
2023-05-16T08:30:01.910Z,12.81
2023-05-16T08:31:01.920Z,12.81
2023-05-16T08:32:02.004Z,12.95
2023-05-16T08:33:01.993Z,12.81
2023-05-16T08:34:01.870Z,12.89
2023-05-16T08:35:01.850Z,13.02
2023-05-16T08:36:01.835Z,12.99
2023-05-16T08:37:01.843Z,12.85
2023-05-16T08:38:01.930Z,12.87
2023-05-16T08:39:01.806Z,12.71
2023-05-16T08:40:01.802Z,12.64
2023-05-16T08:41:01.792Z,12.77
2023-05-16T08:42:01.794Z,12.84
2023-05-16T08:43:01.812Z,13.07
2023-05-16T08:44:01.767Z,13.04
2023-05-16T08:45:01.742Z,13.27
2023-05-16T08:46:01.749Z,13.21
2023-05-16T08:47:01.793Z,13.29
2023-05-16T08:48:01.776Z,13.32
2023-05-16T08:49:01.713Z,13.54
2023-05-16T08:50:01.779Z,13.70
2023-05-16T08:51:01.703Z,13.84
2023-05-16T08:52:01.765Z,13.94
2023-05-16T08:53:01.671Z,13.99
2023-05-16T08:54:01.655Z,14.06
2023-05-16T08:56:01.660Z,14.32
2023-05-16T08:57:01.628Z,14.31
2023-05-16T08:58:01.624Z,14.28
2023-05-16T08:59:01.615Z,14.38
2023-05-16T09:00:01.597Z,14.47
2023-05-16T09:01:01.644Z,14.56
2023-05-16T09:02:01.587Z,14.60
2023-05-16T09:03:01.600Z,14.75
2023-05-16T09:04:01.641Z,14.86
2023-05-16T09:05:01.567Z,14.75
2023-05-16T09:06:01.569Z,14.64
2023-05-16T09:07:01.524Z,14.71
2023-05-16T09:08:01.544Z,14.87
2023-05-16T09:09:01.507Z,14.98
2023-05-16T09:10:01.543Z,15.17
2023-05-16T09:11:01.483Z,15.11
2023-05-16T09:12:01.482Z,14.98
2023-05-16T09:13:01.469Z,14.86
2023-05-16T09:14:01.459Z,14.98
2023-05-16T09:15:01.547Z,14.83
2023-05-16T09:16:01.440Z,14.83
2023-05-16T09:17:01.433Z,14.94
2023-05-16T09:18:01.538Z,15.06
2023-05-16T09:19:01.479Z,14.99
2023-05-16T09:20:01.439Z,14.93
2023-05-16T09:21:01.382Z,14.72
2023-05-16T09:22:01.389Z,14.80
2023-05-16T09:23:01.384Z,14.65
2023-05-16T09:24:01.382Z,14.47
2023-05-16T09:25:01.346Z,14.69
2023-05-16T09:26:01.336Z,14.44
2023-05-16T09:27:01.342Z,14.34
2023-05-16T09:28:01.576Z,14.35
2023-05-16T09:29:01.338Z,14.28
2023-05-16T09:30:01.289Z,14.17
2023-05-16T09:31:01.274Z,14.06
2023-05-16T09:32:01.271Z,14.07
2023-05-16T09:33:01.321Z,14.25
2023-05-16T09:34:01.257Z,14.29
2023-05-16T09:35:01.256Z,14.27
2023-05-16T09:36:01.223Z,14.35
2023-05-16T09:37:01.206Z,14.38
2023-05-16T09:38:01.219Z,14.47
2023-05-16T09:39:01.192Z,14.43
2023-05-16T09:40:01.180Z,14.68
2023-05-16T09:41:01.177Z,14.84
2023-05-16T09:42:01.164Z,15.03
2023-05-16T09:43:01.158Z,15.11
2023-05-16T09:44:01.150Z,15.27
2023-05-16T09:45:02.077Z,15.23
2023-05-16T09:46:01.250Z,15.09
2023-05-16T09:47:01.104Z,15.21
2023-05-16T09:48:01.148Z,15.27
2023-05-16T09:49:01.083Z,15.27
2023-05-16T09:50:01.073Z,15.30
2023-05-16T09:51:02.348Z,15.27
2023-05-16T09:52:01.056Z,15.35
2023-05-16T09:53:01.051Z,15.43
2023-05-16T09:54:01.025Z,15.36
2023-05-16T09:55:01.015Z,15.38
2023-05-16T09:56:01.015Z,15.38
2023-05-16T09:57:03.011Z,15.42
2023-05-16T09:58:01.021Z,15.09
2023-05-16T09:59:00.971Z,15.35
2023-05-16T10:00:00.965Z,15.12
2023-05-16T10:01:00.952Z,15.09
2023-05-16T10:02:01.672Z,15.05
2023-05-16T10:03:11.663Z,15.23
2023-05-16T10:05:27.194Z,15.72
2023-05-16T10:06:26.889Z,15.88
2023-05-16T10:07:26.892Z,16.04
2023-05-16T10:08:27.031Z,16.12
2023-05-16T10:12:24.481Z,16.30
2023-05-16T10:13:24.466Z,16.07
2023-05-16T10:19:20.079Z,16.99
2023-05-16T10:19:42.900Z,17.04
2023-05-16T10:20:42.925Z,17.11
2023-05-16T10:21:42.900Z,17.13
2023-05-16T10:22:42.869Z,17.38
2023-05-16T10:23:42.954Z,17.50
2023-05-16T10:24:42.854Z,17.59
2023-05-16T10:25:42.841Z,17.51
2023-05-16T10:26:42.843Z,17.20
2023-05-16T10:27:42.817Z,17.15
2023-05-16T10:28:42.818Z,17.29
2023-05-16T10:29:53.580Z,17.63
2023-05-16T10:30:43.796Z,17.47
2023-05-16T10:31:42.858Z,17.41
2023-05-16T10:32:43.064Z,16.73
2023-05-16T10:33:42.748Z,16.60
2023-05-16T10:34:42.794Z,16.95
2023-05-16T10:35:42.751Z,17.22
2023-05-16T10:36:42.721Z,17.59
2023-05-16T10:37:42.704Z,18.09
2023-05-16T10:38:42.710Z,18.52
2023-05-16T10:39:42.688Z,19.10
2023-05-16T10:40:44.041Z,19.42
2023-05-16T10:46:17.206Z,19.35
2023-05-16T10:48:26.555Z,18.10
2023-05-16T10:49:26.554Z,18.09
2023-05-16T10:50:26.563Z,18.40
2023-05-16T10:51:26.513Z,18.37
2023-05-16T10:52:26.512Z,17.66
2023-05-16T10:53:26.507Z,17.85
2023-05-16T10:54:27.131Z,18.39
2023-05-16T10:55:27.316Z,18.72
2023-05-16T10:56:26.521Z,19.08
2023-05-16T10:57:26.459Z,19.65
2023-05-16T10:58:26.451Z,19.76
2023-05-16T10:59:26.428Z,19.91
2023-05-16T11:00:26.412Z,19.84
2023-05-16T11:01:26.467Z,19.88
2023-05-16T11:02:26.490Z,20.16
2023-05-16T11:03:26.519Z,20.56
2023-05-16T11:04:26.376Z,20.51
2023-05-16T11:05:26.703Z,20.30
2023-05-16T11:06:26.387Z,20.24
2023-05-16T11:07:26.348Z,20.03
2023-05-16T11:08:26.333Z,20.15
2023-05-16T11:09:26.314Z,19.80
2023-05-16T11:10:26.306Z,19.80
2023-05-16T11:11:26.301Z,19.78
2023-05-16T11:12:26.281Z,19.90
2023-05-16T11:13:26.303Z,19.51
2023-05-16T11:14:26.273Z,20.00
2023-05-16T11:15:26.471Z,20.28
2023-05-16T11:16:26.285Z,19.98
2023-05-16T11:17:29.940Z,19.73
2023-05-16T11:18:26.260Z,19.72
2023-05-16T11:20:51.721Z,19.46
2023-05-16T11:21:51.869Z,18.97
2023-05-16T11:30:32.598Z,19.57
2023-05-16T11:31:29.501Z,19.72
2023-05-16T11:32:29.529Z,19.87
2023-05-16T11:33:29.468Z,19.86
2023-05-16T11:34:29.487Z,19.87
2023-05-16T11:35:29.769Z,19.73
2023-05-16T11:36:29.458Z,19.05
2023-05-16T11:37:29.439Z,18.83
2023-05-16T11:38:29.413Z,18.82
2023-05-16T11:39:29.472Z,19.01
2023-05-16T11:40:29.396Z,19.36
2023-05-16T11:41:29.459Z,19.39
2023-05-16T11:42:29.526Z,19.24
2023-05-16T11:43:29.370Z,19.42
2023-05-16T11:44:29.545Z,19.60
2023-05-16T11:45:29.537Z,19.88
2023-05-16T11:46:29.388Z,20.03
2023-05-16T11:47:29.379Z,20.30
2023-05-16T11:48:36.178Z,20.46
2023-05-16T11:49:30.301Z,20.59
2023-05-16T11:50:29.288Z,20.95
2023-05-16T11:51:29.331Z,21.09
2023-05-16T11:52:29.271Z,21.36
2023-05-16T11:53:29.263Z,21.85
2023-05-16T11:54:29.249Z,21.76
2023-05-16T11:55:41.188Z,21.99
2023-05-16T11:56:30.239Z,21.82
2023-05-16T11:57:29.218Z,21.85
2023-05-16T11:58:29.207Z,21.92
2023-05-16T11:59:29.192Z,21.88
2023-05-16T12:00:29.203Z,22.04
2023-05-16T12:01:30.321Z,22.02
2023-05-16T12:02:29.244Z,22.39
2023-05-16T12:03:29.245Z,22.57
2023-05-16T12:04:29.333Z,22.35
2023-05-16T12:05:29.445Z,22.19
2023-05-16T12:06:29.125Z,22.39
2023-05-16T12:07:29.110Z,21.83
2023-05-16T12:08:29.110Z,21.19
2023-05-16T12:09:29.130Z,20.86
2023-05-16T12:10:29.271Z,20.39
2023-05-16T12:11:46.567Z,19.97
2023-05-16T12:12:30.065Z,19.55
2023-05-16T12:13:29.047Z,19.58
2023-05-16T12:14:29.045Z,19.79
2023-05-16T12:15:29.229Z,19.87
2023-05-16T12:16:29.061Z,19.73
2023-05-16T12:17:29.021Z,19.79
2023-05-16T12:18:29.001Z,20.05
2023-05-16T12:19:29.009Z,20.02
2023-05-16T12:20:28.992Z,19.93
2023-05-16T12:21:28.959Z,19.95
2023-05-16T12:22:28.953Z,19.84
2023-05-16T12:23:28.939Z,20.05
2023-05-16T12:24:30.357Z,20.27
2023-05-16T12:25:29.519Z,20.53
2023-05-16T12:26:28.912Z,20.76
2023-05-16T12:27:28.898Z,20.51
2023-05-16T12:28:28.906Z,20.50
2023-05-16T12:29:28.879Z,19.97
2023-05-16T12:30:29.080Z,19.65
2023-05-16T12:31:31.798Z,19.43
2023-05-16T12:32:28.893Z,19.21
2023-05-16T12:33:28.961Z,19.05
2023-05-16T12:34:28.824Z,18.97
2023-05-16T12:35:28.811Z,19.46
2023-05-16T12:36:28.805Z,19.83
2023-05-16T12:37:28.791Z,20.16
2023-05-16T12:38:28.794Z,20.69
2023-05-16T12:39:28.775Z,21.21
2023-05-16T12:40:29.128Z,21.66
2023-05-16T12:41:28.750Z,22.27
2023-05-16T12:42:28.740Z,21.56
2023-05-16T12:43:28.737Z,21.30
2023-05-16T12:44:28.718Z,21.35
2023-05-16T12:45:28.739Z,20.99
2023-05-16T12:46:28.716Z,20.98
2023-05-16T12:47:28.866Z,20.96
2023-05-16T12:48:28.685Z,20.58
2023-05-16T12:49:28.665Z,20.15
2023-05-16T12:50:28.792Z,20.09
2023-05-16T12:51:28.649Z,20.33
2023-05-16T12:52:28.637Z,20.74
2023-05-16T12:53:28.621Z,21.01
2023-05-16T12:54:28.605Z,21.27
2023-05-16T12:55:28.603Z,20.89
2023-05-16T12:56:28.603Z,21.04
2023-05-16T12:57:28.591Z,21.06
2023-05-16T12:58:28.638Z,21.20
2023-05-16T12:59:28.558Z,21.71
2023-05-16T13:00:28.698Z,22.20
2023-05-16T13:01:28.663Z,22.59
2023-05-16T13:02:28.608Z,22.56
2023-05-16T13:03:29.320Z,22.39
2023-05-16T13:04:28.506Z,22.04
2023-05-16T13:07:04.096Z,21.79
2023-05-16T13:07:54.514Z,21.79
2023-05-16T13:08:54.861Z,21.64
2023-05-16T13:09:54.546Z,21.17
2023-05-16T13:10:54.797Z,20.74
2023-05-16T13:11:54.568Z,20.41
2023-05-16T13:12:54.644Z,20.42
2023-05-16T13:13:54.531Z,20.15
2023-05-16T13:14:55.636Z,20.38
2023-05-16T13:15:54.538Z,20.42
2023-05-16T13:17:09.148Z,20.68
2023-05-16T13:18:58.076Z,20.35
2023-05-16T13:18:58.475Z,19.60
2023-05-16T13:19:58.444Z,19.69
2023-05-16T13:20:58.451Z,19.80
2023-05-16T13:21:58.440Z,19.94
2023-05-16T13:22:58.406Z,19.73
2023-05-16T13:23:58.407Z,19.65
2023-05-16T13:24:58.438Z,19.80
2023-05-16T13:25:58.392Z,19.72
2023-05-16T13:26:58.401Z,19.84
2023-05-16T13:27:58.464Z,19.66
2023-05-16T13:28:58.368Z,19.60
2023-05-16T13:29:58.360Z,19.33
2023-05-16T13:31:00.190Z,19.32
2023-05-16T13:31:58.402Z,18.92
2023-05-16T13:32:58.367Z,18.84
2023-05-16T13:33:58.303Z,18.76
2023-05-16T13:34:58.298Z,18.83
2023-05-16T13:35:58.278Z,19.08
2023-05-16T13:36:58.272Z,18.86
2023-05-16T13:37:58.312Z,18.97
2023-05-16T13:38:58.240Z,19.28
2023-05-16T13:39:58.277Z,19.28
2023-05-16T13:40:58.225Z,19.35
2023-05-16T13:41:58.215Z,19.40
2023-05-16T13:42:58.206Z,19.28
2023-05-16T13:43:58.370Z,19.40
2023-05-16T13:44:58.194Z,19.31
2023-05-16T13:45:58.200Z,19.17
2023-05-16T13:46:58.168Z,19.35
2023-05-16T13:47:58.184Z,19.36
2023-05-16T13:48:59.734Z,19.47
2023-05-16T13:49:58.137Z,19.58
2023-05-16T13:50:58.119Z,19.73
2023-05-16T13:51:58.114Z,19.33
2023-05-16T13:52:58.094Z,19.20
2023-05-16T13:53:58.093Z,19.13
2023-05-16T13:54:58.074Z,18.90
2023-05-16T13:55:58.071Z,18.84
2023-05-16T13:56:58.052Z,18.91
2023-05-16T13:57:58.054Z,18.76
2023-05-16T13:59:01.112Z,18.62
2023-05-16T14:00:24.954Z,18.15
2023-05-16T14:00:59.037Z,18.12
2023-05-16T14:01:58.220Z,18.10
2023-05-16T14:02:58.064Z,18.15
2023-05-16T14:03:58.010Z,18.03
2023-05-16T14:04:57.986Z,17.87
2023-05-16T14:05:58.007Z,18.24
2023-05-16T14:06:57.969Z,18.49
2023-05-16T14:07:57.958Z,18.70
2023-05-16T14:08:57.969Z,19.06
2023-05-16T14:09:57.925Z,19.13
2023-05-16T14:10:57.926Z,19.17
2023-05-16T14:11:57.902Z,19.25
2023-05-16T14:12:57.896Z,19.53
2023-05-16T14:13:57.876Z,19.68
2023-05-16T14:14:57.885Z,19.95
2023-05-16T14:15:58.021Z,20.24
2023-05-16T14:16:57.869Z,20.12
2023-05-16T14:17:57.907Z,20.28
2023-05-16T14:18:57.948Z,20.49